sensor_id;sensor_type;location;lat;lon;timestamp;P1;durP1;ratioP1;P2;durP2;ratioP2
43118;SDS011;28729;49.838;8.650;2022-12-18T00:02:47;32.95;;;13.80;;
43118;SDS011;28729;49.838;8.650;2022-12-18T00:06:49;32.03;;;13.95;;
43118;SDS011;28729;49.838;8.650;2022-12-18T00:10:51;35.88;;;13.52;;
43118;SDS011;28729;49.838;8.650;2022-12-18T00:14:53;33.40;;;13.00;;
43118;SDS011;28729;49.838;8.650;2022-12-18T00:18:55;20.95;;;9.07;;
43118;SDS011;28729;49.838;8.650;2022-12-18T00:22:57;32.03;;;13.68;;
43118;SDS011;28729;49.838;8.650;2022-12-18T00:26:59;34.83;;;13.07;;
43118;SDS011;28729;49.838;8.650;2022-12-18T00:31:02;25.65;;;9.77;;
43118;SDS011;28729;49.838;8.650;2022-12-18T00:35:05;29.98;;;12.02;;
43118;SDS011;28729;49.838;8.650;2022-12-18T00:39:09;31.60;;;12.80;;
43118;SDS011;28729;49.838;8.650;2022-12-18T00:43:12;29.00;;;12.27;;
43118;SDS011;28729;49.838;8.650;2022-12-18T00:47:13;32.13;;;13.00;;
43118;SDS011;28729;49.838;8.650;2022-12-18T00:51:15;23.58;;;10.07;;
43118;SDS011;28729;49.838;8.650;2022-12-18T00:55:17;32.67;;;13.10;;
43118;SDS011;28729;49.838;8.650;2022-12-18T00:59:20;32.80;;;13.50;;
43118;SDS011;28729;49.838;8.650;2022-12-18T01:03:27;31.02;;;12.52;;
43118;SDS011;28729;49.838;8.650;2022-12-18T01:07:28;24.20;;;10.52;;
43118;SDS011;28729;49.838;8.650;2022-12-18T01:11:30;33.05;;;12.93;;
43118;SDS011;28729;49.838;8.650;2022-12-18T01:15:32;33.95;;;12.38;;
43118;SDS011;28729;49.838;8.650;2022-12-18T01:19:33;35.25;;;12.38;;
43118;SDS011;28729;49.838;8.650;2022-12-18T01:23:37;29.65;;;12.13;;
43118;SDS011;28729;49.838;8.650;2022-12-18T01:27:40;30.27;;;11.75;;
43118;SDS011;28729;49.838;8.650;2022-12-18T01:31:42;33.42;;;12.75;;
43118;SDS011;28729;49.838;8.650;2022-12-18T01:35:44;29.35;;;11.85;;
43118;SDS011;28729;49.838;8.650;2022-12-18T01:39:45;33.40;;;13.45;;
43118;SDS011;28729;49.838;8.650;2022-12-18T01:43:51;30.25;;;12.48;;
43118;SDS011;28729;49.838;8.650;2022-12-18T01:52:04;32.97;;;13.20;;
43118;SDS011;28729;49.838;8.650;2022-12-18T01:56:06;30.67;;;13.48;;
43118;SDS011;28729;49.838;8.650;2022-12-18T02:00:12;36.30;;;13.90;;
43118;SDS011;28729;49.838;8.650;2022-12-18T02:04:23;34.00;;;13.85;;
43118;SDS011;28729;49.838;8.650;2022-12-18T02:13:02;33.75;;;13.80;;
43118;SDS011;28729;49.838;8.650;2022-12-18T02:17:19;31.08;;;11.65;;
43118;SDS011;28729;49.838;8.650;2022-12-18T02:21:32;34.38;;;12.80;;
43118;SDS011;28729;49.838;8.650;2022-12-18T02:25:59;44.05;;;15.05;;
43118;SDS011;28729;49.838;8.650;2022-12-18T02:30:09;38.47;;;14.75;;
43118;SDS011;28729;49.838;8.650;2022-12-18T02:34:12;34.15;;;14.23;;
43118;SDS011;28729;49.838;8.650;2022-12-18T02:38:15;35.63;;;14.35;;
43118;SDS011;28729;49.838;8.650;2022-12-18T02:42:21;38.70;;;13.45;;
43118;SDS011;28729;49.838;8.650;2022-12-18T02:46:32;37.47;;;15.63;;
43118;SDS011;28729;49.838;8.650;2022-12-18T02:50:51;29.98;;;13.38;;
43118;SDS011;28729;49.838;8.650;2022-12-18T02:55:46;38.38;;;14.95;;
43118;SDS011;28729;49.838;8.650;2022-12-18T03:00:10;33.00;;;14.63;;
43118;SDS011;28729;49.838;8.650;2022-12-18T03:04:18;37.08;;;16.23;;
43118;SDS011;28729;49.838;8.650;2022-12-18T03:08:28;41.97;;;17.40;;
43118;SDS011;28729;49.838;8.650;2022-12-18T03:12:37;34.97;;;17.60;;
43118;SDS011;28729;49.838;8.650;2022-12-18T03:16:44;43.67;;;17.42;;
43118;SDS011;28729;49.838;8.650;2022-12-18T03:20:48;35.67;;;15.27;;
43118;SDS011;28729;49.838;8.650;2022-12-18T03:24:55;43.20;;;16.40;;
43118;SDS011;28729;49.838;8.650;2022-12-18T03:29:00;40.85;;;15.10;;
43118;SDS011;28729;49.838;8.650;2022-12-18T03:33:16;40.50;;;15.85;;
43118;SDS011;28729;49.838;8.650;2022-12-18T03:37:25;36.92;;;15.43;;
43118;SDS011;28729;49.838;8.650;2022-12-18T03:46:00;36.90;;;14.30;;
43118;SDS011;28729;49.838;8.650;2022-12-18T03:54:19;38.85;;;15.35;;
43118;SDS011;28729;49.838;8.650;2022-12-18T03:58:29;36.92;;;13.90;;
43118;SDS011;28729;49.838;8.650;2022-12-18T04:02:54;43.08;;;15.40;;
43118;SDS011;28729;49.838;8.650;2022-12-18T04:07:06;34.90;;;15.80;;
43118;SDS011;28729;49.838;8.650;2022-12-18T04:11:11;35.13;;;14.82;;
43118;SDS011;28729;49.838;8.650;2022-12-18T04:15:13;37.30;;;15.30;;
43118;SDS011;28729;49.838;8.650;2022-12-18T04:19:17;44.00;;;15.38;;
43118;SDS011;28729;49.838;8.650;2022-12-18T04:23:22;30.50;;;13.38;;
43118;SDS011;28729;49.838;8.650;2022-12-18T04:27:24;42.88;;;14.70;;
43118;SDS011;28729;49.838;8.650;2022-12-18T04:31:26;35.72;;;13.85;;
43118;SDS011;28729;49.838;8.650;2022-12-18T04:35:29;36.60;;;14.32;;
43118;SDS011;28729;49.838;8.650;2022-12-18T04:43:39;36.65;;;16.02;;
43118;SDS011;28729;49.838;8.650;2022-12-18T04:51:42;33.38;;;12.45;;
43118;SDS011;28729;49.838;8.650;2022-12-18T04:55:44;40.92;;;14.65;;
43118;SDS011;28729;49.838;8.650;2022-12-18T04:59:46;37.30;;;15.95;;
43118;SDS011;28729;49.838;8.650;2022-12-18T05:03:47;37.58;;;15.25;;
43118;SDS011;28729;49.838;8.650;2022-12-18T05:07:49;28.77;;;13.10;;
43118;SDS011;28729;49.838;8.650;2022-12-18T05:11:51;38.17;;;15.57;;
43118;SDS011;28729;49.838;8.650;2022-12-18T05:15:52;35.67;;;14.40;;
43118;SDS011;28729;49.838;8.650;2022-12-18T05:19:55;36.20;;;14.80;;
43118;SDS011;28729;49.838;8.650;2022-12-18T05:23:57;37.78;;;14.95;;
43118;SDS011;28729;49.838;8.650;2022-12-18T05:27:58;33.75;;;14.63;;
43118;SDS011;28729;49.838;8.650;2022-12-18T05:32:01;36.10;;;13.00;;
43118;SDS011;28729;49.838;8.650;2022-12-18T05:36:04;29.42;;;13.60;;
43118;SDS011;28729;49.838;8.650;2022-12-18T05:40:08;31.92;;;12.00;;
43118;SDS011;28729;49.838;8.650;2022-12-18T05:44:10;40.05;;;15.13;;
43118;SDS011;28729;49.838;8.650;2022-12-18T05:48:12;34.70;;;13.95;;
43118;SDS011;28729;49.838;8.650;2022-12-18T05:52:14;31.30;;;13.73;;
43118;SDS011;28729;49.838;8.650;2022-12-18T05:56:17;37.55;;;12.43;;
43118;SDS011;28729;49.838;8.650;2022-12-18T06:00:20;34.88;;;13.07;;
43118;SDS011;28729;49.838;8.650;2022-12-18T06:04:22;34.83;;;14.13;;
43118;SDS011;28729;49.838;8.650;2022-12-18T06:08:24;38.75;;;14.82;;
43118;SDS011;28729;49.838;8.650;2022-12-18T06:12:25;30.52;;;12.93;;
43118;SDS011;28729;49.838;8.650;2022-12-18T06:16:27;30.55;;;13.35;;
43118;SDS011;28729;49.838;8.650;2022-12-18T06:20:31;41.10;;;14.32;;
43118;SDS011;28729;49.838;8.650;2022-12-18T06:24:34;34.67;;;12.75;;
43118;SDS011;28729;49.838;8.650;2022-12-18T06:28:35;31.60;;;11.70;;
43118;SDS011;28729;49.838;8.650;2022-12-18T06:32:37;37.30;;;13.85;;
43118;SDS011;28729;49.838;8.650;2022-12-18T06:36:39;30.55;;;11.38;;
43118;SDS011;28729;49.838;8.650;2022-12-18T06:40:40;32.67;;;12.43;;
43118;SDS011;28729;49.838;8.650;2022-12-18T06:44:42;31.73;;;12.70;;
43118;SDS011;28729;49.838;8.650;2022-12-18T06:48:46;29.05;;;10.38;;
43118;SDS011;28729;49.838;8.650;2022-12-18T06:52:49;36.80;;;14.75;;
43118;SDS011;28729;49.838;8.650;2022-12-18T06:56:51;45.00;;;16.05;;
43118;SDS011;28729;49.838;8.650;2022-12-18T07:00:52;33.25;;;13.35;;
43118;SDS011;28729;49.838;8.650;2022-12-18T07:04:56;29.15;;;13.18;;
43118;SDS011;28729;49.838;8.650;2022-12-18T07:08:58;45.35;;;14.18;;
43118;SDS011;28729;49.838;8.650;2022-12-18T07:12:59;33.75;;;13.25;;
43118;SDS011;28729;49.838;8.650;2022-12-18T07:17:01;39.28;;;15.77;;
43118;SDS011;28729;49.838;8.650;2022-12-18T07:25:08;30.23;;;12.18;;
43118;SDS011;28729;49.838;8.650;2022-12-18T07:29:10;38.30;;;13.00;;
43118;SDS011;28729;49.838;8.650;2022-12-18T07:33:12;43.38;;;13.23;;
43118;SDS011;28729;49.838;8.650;2022-12-18T07:37:13;43.85;;;13.02;;
43118;SDS011;28729;49.838;8.650;2022-12-18T07:41:15;40.80;;;14.57;;
43118;SDS011;28729;49.838;8.650;2022-12-18T07:45:17;43.40;;;14.13;;
43118;SDS011;28729;49.838;8.650;2022-12-18T07:49:19;46.80;;;15.00;;
43118;SDS011;28729;49.838;8.650;2022-12-18T07:53:20;47.00;;;15.73;;
43118;SDS011;28729;49.838;8.650;2022-12-18T07:57:22;37.67;;;14.23;;
43118;SDS011;28729;49.838;8.650;2022-12-18T08:01:44;42.53;;;13.30;;
43118;SDS011;28729;49.838;8.650;2022-12-18T08:05:47;30.85;;;12.18;;
43118;SDS011;28729;49.838;8.650;2022-12-18T08:09:51;44.78;;;17.00;;
43118;SDS011;28729;49.838;8.650;2022-12-18T08:13:53;31.08;;;13.73;;
43118;SDS011;28729;49.838;8.650;2022-12-18T08:21:58;28.35;;;12.90;;
43118;SDS011;28729;49.838;8.650;2022-12-18T08:25:59;43.40;;;13.25;;
43118;SDS011;28729;49.838;8.650;2022-12-18T08:30:01;47.75;;;14.38;;
43118;SDS011;28729;49.838;8.650;2022-12-18T08:34:04;47.88;;;17.00;;
43118;SDS011;28729;49.838;8.650;2022-12-18T08:38:06;38.50;;;13.98;;
43118;SDS011;28729;49.838;8.650;2022-12-18T08:42:09;41.90;;;15.10;;
43118;SDS011;28729;49.838;8.650;2022-12-18T08:46:33;37.13;;;15.27;;
43118;SDS011;28729;49.838;8.650;2022-12-18T08:50:37;43.28;;;14.30;;
43118;SDS011;28729;49.838;8.650;2022-12-18T08:54:39;40.35;;;15.82;;
43118;SDS011;28729;49.838;8.650;2022-12-18T08:58:41;42.63;;;15.25;;
43118;SDS011;28729;49.838;8.650;2022-12-18T09:02:45;59.10;;;19.02;;
43118;SDS011;28729;49.838;8.650;2022-12-18T09:06:55;48.40;;;18.92;;
43118;SDS011;28729;49.838;8.650;2022-12-18T09:10:57;53.30;;;17.50;;
43118;SDS011;28729;49.838;8.650;2022-12-18T09:14:59;53.05;;;18.35;;
43118;SDS011;28729;49.838;8.650;2022-12-18T09:19:01;46.70;;;18.77;;
43118;SDS011;28729;49.838;8.650;2022-12-18T09:23:05;56.08;;;20.13;;
43118;SDS011;28729;49.838;8.650;2022-12-18T09:27:07;54.28;;;18.80;;
43118;SDS011;28729;49.838;8.650;2022-12-18T09:31:10;46.80;;;16.98;;
43118;SDS011;28729;49.838;8.650;2022-12-18T09:35:16;45.78;;;18.15;;
43118;SDS011;28729;49.838;8.650;2022-12-18T09:39:18;39.13;;;17.13;;
43118;SDS011;28729;49.838;8.650;2022-12-18T09:47:33;41.53;;;17.20;;
43118;SDS011;28729;49.838;8.650;2022-12-18T09:51:57;47.72;;;17.45;;
43118;SDS011;28729;49.838;8.650;2022-12-18T09:56:05;50.47;;;17.10;;
43118;SDS011;28729;49.838;8.650;2022-12-18T10:00:16;45.63;;;17.23;;
43118;SDS011;28729;49.838;8.650;2022-12-18T10:04:21;42.88;;;16.90;;
43118;SDS011;28729;49.838;8.650;2022-12-18T10:12:59;41.55;;;16.77;;
43118;SDS011;28729;49.838;8.650;2022-12-18T10:26:12;44.35;;;17.50;;
43118;SDS011;28729;49.838;8.650;2022-12-18T10:30:20;44.03;;;18.52;;
43118;SDS011;28729;49.838;8.650;2022-12-18T10:34:23;50.30;;;19.70;;
43118;SDS011;28729;49.838;8.650;2022-12-18T10:38:29;40.70;;;17.40;;
43118;SDS011;28729;49.838;8.650;2022-12-18T10:42:33;44.63;;;16.85;;
43118;SDS011;28729;49.838;8.650;2022-12-18T10:46:34;41.77;;;16.90;;
43118;SDS011;28729;49.838;8.650;2022-12-18T10:50:36;36.90;;;13.37;;
43118;SDS011;28729;49.838;8.650;2022-12-18T10:54:59;41.95;;;16.85;;
43118;SDS011;28729;49.838;8.650;2022-12-18T10:59:07;46.72;;;19.50;;
43118;SDS011;28729;49.838;8.650;2022-12-18T11:03:31;44.30;;;18.67;;
43118;SDS011;28729;49.838;8.650;2022-12-18T11:07:47;48.75;;;17.77;;
43118;SDS011;28729;49.838;8.650;2022-12-18T11:11:52;58.08;;;18.55;;
43118;SDS011;28729;49.838;8.650;2022-12-18T11:15:55;48.47;;;17.50;;
43118;SDS011;28729;49.838;8.650;2022-12-18T11:19:58;45.83;;;16.98;;
43118;SDS011;28729;49.838;8.650;2022-12-18T11:24:02;47.05;;;17.23;;
43118;SDS011;28729;49.838;8.650;2022-12-18T11:28:05;48.37;;;17.73;;
43118;SDS011;28729;49.838;8.650;2022-12-18T11:32:31;47.25;;;16.02;;
43118;SDS011;28729;49.838;8.650;2022-12-18T11:36:42;40.53;;;17.08;;
43118;SDS011;28729;49.838;8.650;2022-12-18T11:40:47;46.38;;;16.70;;
43118;SDS011;28729;49.838;8.650;2022-12-18T11:44:59;44.35;;;16.35;;
43118;SDS011;28729;49.838;8.650;2022-12-18T11:49:11;41.28;;;16.02;;
43118;SDS011;28729;49.838;8.650;2022-12-18T11:53:38;44.95;;;18.20;;
43118;SDS011;28729;49.838;8.650;2022-12-18T12:02:10;45.05;;;17.00;;
43118;SDS011;28729;49.838;8.650;2022-12-18T12:06:23;38.45;;;17.33;;
43118;SDS011;28729;49.838;8.650;2022-12-18T12:10:52;38.55;;;16.73;;
43118;SDS011;28729;49.838;8.650;2022-12-18T12:15:05;44.05;;;17.42;;
43118;SDS011;28729;49.838;8.650;2022-12-18T12:19:25;39.22;;;18.13;;
43118;SDS011;28729;49.838;8.650;2022-12-18T12:36:19;42.53;;;16.40;;
43118;SDS011;28729;49.838;8.650;2022-12-18T12:40:31;40.47;;;16.92;;
43118;SDS011;28729;49.838;8.650;2022-12-18T12:44:57;45.00;;;17.77;;
43118;SDS011;28729;49.838;8.650;2022-12-18T12:49:02;44.38;;;16.85;;
43118;SDS011;28729;49.838;8.650;2022-12-18T12:53:06;43.03;;;19.23;;
43118;SDS011;28729;49.838;8.650;2022-12-18T12:57:13;49.70;;;21.05;;
43118;SDS011;28729;49.838;8.650;2022-12-18T13:14:35;49.88;;;19.45;;
43118;SDS011;28729;49.838;8.650;2022-12-18T13:18:40;49.13;;;20.60;;
43118;SDS011;28729;49.838;8.650;2022-12-18T13:22:50;46.85;;;20.88;;
43118;SDS011;28729;49.838;8.650;2022-12-18T13:26:53;54.70;;;19.80;;
43118;SDS011;28729;49.838;8.650;2022-12-18T13:39:32;46.03;;;16.58;;
43118;SDS011;28729;49.838;8.650;2022-12-18T13:43:46;46.05;;;17.08;;
43118;SDS011;28729;49.838;8.650;2022-12-18T13:47:48;46.38;;;15.43;;
43118;SDS011;28729;49.838;8.650;2022-12-18T13:51:52;43.20;;;15.35;;
43118;SDS011;28729;49.838;8.650;2022-12-18T13:55:56;43.72;;;15.18;;
43118;SDS011;28729;49.838;8.650;2022-12-18T13:59:59;43.33;;;15.18;;
43118;SDS011;28729;49.838;8.650;2022-12-18T14:04:28;43.10;;;14.20;;
43118;SDS011;28729;49.838;8.650;2022-12-18T14:08:40;46.03;;;15.65;;
43118;SDS011;28729;49.838;8.650;2022-12-18T14:12:46;51.95;;;15.63;;
43118;SDS011;28729;49.838;8.650;2022-12-18T14:17:03;40.25;;;14.40;;
43118;SDS011;28729;49.838;8.650;2022-12-18T14:21:19;41.60;;;14.57;;
43118;SDS011;28729;49.838;8.650;2022-12-18T14:29:28;38.42;;;13.20;;
43118;SDS011;28729;49.838;8.650;2022-12-18T14:33:31;41.92;;;15.13;;
43118;SDS011;28729;49.838;8.650;2022-12-18T14:37:32;42.90;;;15.82;;
43118;SDS011;28729;49.838;8.650;2022-12-18T14:41:34;40.60;;;15.05;;
43118;SDS011;28729;49.838;8.650;2022-12-18T14:45:36;37.20;;;15.30;;
43118;SDS011;28729;49.838;8.650;2022-12-18T14:49:44;38.53;;;13.65;;
43118;SDS011;28729;49.838;8.650;2022-12-18T14:53:46;42.33;;;15.17;;
43118;SDS011;28729;49.838;8.650;2022-12-18T14:57:55;37.45;;;13.93;;
43118;SDS011;28729;49.838;8.650;2022-12-18T15:06:24;43.28;;;14.23;;
43118;SDS011;28729;49.838;8.650;2022-12-18T15:10:32;41.83;;;15.63;;
43118;SDS011;28729;49.838;8.650;2022-12-18T15:18:41;37.25;;;14.85;;
43118;SDS011;28729;49.838;8.650;2022-12-18T15:22:46;45.45;;;17.48;;
43118;SDS011;28729;49.838;8.650;2022-12-18T15:26:48;60.15;;;22.52;;
43118;SDS011;28729;49.838;8.650;2022-12-18T15:31:00;56.58;;;21.90;;
43118;SDS011;28729;49.838;8.650;2022-12-18T15:39:12;56.33;;;21.42;;
43118;SDS011;28729;49.838;8.650;2022-12-18T15:43:14;67.03;;;23.45;;
43118;SDS011;28729;49.838;8.650;2022-12-18T15:47:34;53.25;;;22.88;;
43118;SDS011;28729;49.838;8.650;2022-12-18T15:51:36;41.40;;;17.57;;
43118;SDS011;28729;49.838;8.650;2022-12-18T15:55:39;59.72;;;23.50;;
43118;SDS011;28729;49.838;8.650;2022-12-18T16:00:01;59.80;;;23.38;;
43118;SDS011;28729;49.838;8.650;2022-12-18T16:04:05;53.53;;;21.42;;
43118;SDS011;28729;49.838;8.650;2022-12-18T16:08:06;53.33;;;21.40;;
43118;SDS011;28729;49.838;8.650;2022-12-18T16:12:11;51.78;;;20.00;;
43118;SDS011;28729;49.838;8.650;2022-12-18T16:16:20;64.28;;;22.40;;
43118;SDS011;28729;49.838;8.650;2022-12-18T16:20:23;49.05;;;21.83;;
43118;SDS011;28729;49.838;8.650;2022-12-18T16:24:25;61.40;;;25.35;;
43118;SDS011;28729;49.838;8.650;2022-12-18T16:28:29;56.90;;;23.90;;
43118;SDS011;28729;49.838;8.650;2022-12-18T16:32:31;53.67;;;20.65;;
43118;SDS011;28729;49.838;8.650;2022-12-18T16:36:34;54.58;;;20.88;;
43118;SDS011;28729;49.838;8.650;2022-12-18T16:40:35;47.30;;;19.33;;
43118;SDS011;28729;49.838;8.650;2022-12-18T16:44:59;41.08;;;15.63;;
43118;SDS011;28729;49.838;8.650;2022-12-18T16:49:00;46.80;;;15.73;;
43118;SDS011;28729;49.838;8.650;2022-12-18T16:53:02;37.67;;;13.60;;
43118;SDS011;28729;49.838;8.650;2022-12-18T16:57:04;56.25;;;17.70;;
43118;SDS011;28729;49.838;8.650;2022-12-18T17:01:07;41.55;;;14.90;;
43118;SDS011;28729;49.838;8.650;2022-12-18T17:05:11;45.78;;;15.70;;
43118;SDS011;28729;49.838;8.650;2022-12-18T17:09:14;39.00;;;15.52;;
43118;SDS011;28729;49.838;8.650;2022-12-18T17:13:16;39.28;;;15.27;;
43118;SDS011;28729;49.838;8.650;2022-12-18T17:17:25;45.85;;;14.95;;
43118;SDS011;28729;49.838;8.650;2022-12-18T17:21:27;37.73;;;14.40;;
43118;SDS011;28729;49.838;8.650;2022-12-18T17:25:29;40.20;;;15.07;;
43118;SDS011;28729;49.838;8.650;2022-12-18T17:29:30;37.55;;;14.48;;
43118;SDS011;28729;49.838;8.650;2022-12-18T17:33:32;45.30;;;13.07;;
43118;SDS011;28729;49.838;8.650;2022-12-18T17:37:34;40.10;;;15.90;;
43118;SDS011;28729;49.838;8.650;2022-12-18T17:41:37;37.13;;;13.93;;
43118;SDS011;28729;49.838;8.650;2022-12-18T17:45:38;46.40;;;15.35;;
43118;SDS011;28729;49.838;8.650;2022-12-18T17:49:40;44.50;;;14.77;;
43118;SDS011;28729;49.838;8.650;2022-12-18T17:53:42;40.45;;;15.23;;
43118;SDS011;28729;49.838;8.650;2022-12-18T17:57:45;45.30;;;16.05;;
43118;SDS011;28729;49.838;8.650;2022-12-18T18:01:47;54.25;;;16.75;;
43118;SDS011;28729;49.838;8.650;2022-12-18T18:05:53;43.20;;;16.35;;
43118;SDS011;28729;49.838;8.650;2022-12-18T18:09:59;49.53;;;18.02;;
43118;SDS011;28729;49.838;8.650;2022-12-18T18:14:00;40.45;;;15.50;;
43118;SDS011;28729;49.838;8.650;2022-12-18T18:18:02;49.05;;;18.88;;
43118;SDS011;28729;49.838;8.650;2022-12-18T18:26:25;65.35;;;21.60;;
43118;SDS011;28729;49.838;8.650;2022-12-18T18:30:30;94.55;;;31.48;;
43118;SDS011;28729;49.838;8.650;2022-12-18T18:34:32;147.63;;;49.50;;
43118;SDS011;28729;49.838;8.650;2022-12-18T18:38:33;114.90;;;42.42;;
43118;SDS011;28729;49.838;8.650;2022-12-18T18:42:35;59.55;;;21.90;;
43118;SDS011;28729;49.838;8.650;2022-12-18T18:46:36;46.35;;;19.77;;
43118;SDS011;28729;49.838;8.650;2022-12-18T18:50:38;56.97;;;20.10;;
43118;SDS011;28729;49.838;8.650;2022-12-18T18:54:40;49.73;;;19.60;;
43118;SDS011;28729;49.838;8.650;2022-12-18T18:59:02;53.03;;;18.92;;
43118;SDS011;28729;49.838;8.650;2022-12-18T19:03:03;51.45;;;19.38;;
43118;SDS011;28729;49.838;8.650;2022-12-18T19:07:06;48.27;;;19.17;;
43118;SDS011;28729;49.838;8.650;2022-12-18T19:11:08;44.00;;;16.77;;
43118;SDS011;28729;49.838;8.650;2022-12-18T19:15:36;44.70;;;17.13;;
43118;SDS011;28729;49.838;8.650;2022-12-18T19:19:38;42.72;;;16.45;;
43118;SDS011;28729;49.838;8.650;2022-12-18T19:23:40;51.47;;;19.63;;
43118;SDS011;28729;49.838;8.650;2022-12-18T19:27:42;51.73;;;17.77;;
43118;SDS011;28729;49.838;8.650;2022-12-18T19:31:44;55.77;;;19.63;;
43118;SDS011;28729;49.838;8.650;2022-12-18T19:35:47;58.28;;;21.08;;
43118;SDS011;28729;49.838;8.650;2022-12-18T19:43:51;60.53;;;20.90;;
43118;SDS011;28729;49.838;8.650;2022-12-18T19:47:53;57.15;;;21.13;;
43118;SDS011;28729;49.838;8.650;2022-12-18T19:52:03;60.22;;;22.00;;
43118;SDS011;28729;49.838;8.650;2022-12-18T19:56:05;51.97;;;21.17;;
43118;SDS011;28729;49.838;8.650;2022-12-18T20:00:11;54.88;;;21.00;;
43118;SDS011;28729;49.838;8.650;2022-12-18T20:04:19;50.72;;;21.73;;
43118;SDS011;28729;49.838;8.650;2022-12-18T20:08:21;52.95;;;22.65;;
43118;SDS011;28729;49.838;8.650;2022-12-18T20:12:22;55.38;;;20.38;;
43118;SDS011;28729;49.838;8.650;2022-12-18T20:16:24;58.78;;;21.42;;
43118;SDS011;28729;49.838;8.650;2022-12-18T20:20:27;52.83;;;21.50;;
43118;SDS011;28729;49.838;8.650;2022-12-18T20:24:28;53.87;;;21.57;;
43118;SDS011;28729;49.838;8.650;2022-12-18T20:28:30;66.57;;;21.77;;
43118;SDS011;28729;49.838;8.650;2022-12-18T20:32:32;53.55;;;20.58;;
43118;SDS011;28729;49.838;8.650;2022-12-18T20:36:37;46.83;;;19.52;;
43118;SDS011;28729;49.838;8.650;2022-12-18T20:40:41;51.72;;;20.48;;
43118;SDS011;28729;49.838;8.650;2022-12-18T20:44:42;54.53;;;20.67;;
43118;SDS011;28729;49.838;8.650;2022-12-18T20:48:45;54.53;;;20.02;;
43118;SDS011;28729;49.838;8.650;2022-12-18T20:52:48;52.03;;;19.70;;
43118;SDS011;28729;49.838;8.650;2022-12-18T20:56:50;39.67;;;15.88;;
43118;SDS011;28729;49.838;8.650;2022-12-18T21:01:05;56.53;;;23.07;;
43118;SDS011;28729;49.838;8.650;2022-12-18T21:05:08;53.67;;;22.63;;
43118;SDS011;28729;49.838;8.650;2022-12-18T21:09:10;39.38;;;16.05;;
43118;SDS011;28729;49.838;8.650;2022-12-18T21:13:12;57.20;;;22.30;;
43118;SDS011;28729;49.838;8.650;2022-12-18T21:17:14;60.65;;;22.73;;
43118;SDS011;28729;49.838;8.650;2022-12-18T21:21:16;61.40;;;23.07;;
43118;SDS011;28729;49.838;8.650;2022-12-18T21:25:27;54.88;;;22.77;;
43118;SDS011;28729;49.838;8.650;2022-12-18T21:29:30;55.10;;;23.75;;
43118;SDS011;28729;49.838;8.650;2022-12-18T21:33:31;62.60;;;25.73;;
43118;SDS011;28729;49.838;8.650;2022-12-18T21:37:33;55.45;;;22.35;;
43118;SDS011;28729;49.838;8.650;2022-12-18T21:41:35;42.72;;;17.15;;
43118;SDS011;28729;49.838;8.650;2022-12-18T21:45:56;61.45;;;23.27;;
43118;SDS011;28729;49.838;8.650;2022-12-18T21:49:59;64.60;;;22.80;;
43118;SDS011;28729;49.838;8.650;2022-12-18T21:54:01;50.05;;;20.00;;
43118;SDS011;28729;49.838;8.650;2022-12-18T21:58:04;53.08;;;21.67;;
43118;SDS011;28729;49.838;8.650;2022-12-18T22:02:12;58.85;;;22.63;;
43118;SDS011;28729;49.838;8.650;2022-12-18T22:06:20;58.20;;;22.95;;
43118;SDS011;28729;49.838;8.650;2022-12-18T22:10:22;59.05;;;23.33;;
43118;SDS011;28729;49.838;8.650;2022-12-18T22:14:24;37.92;;;15.73;;
43118;SDS011;28729;49.838;8.650;2022-12-18T22:18:26;58.43;;;22.47;;
43118;SDS011;28729;49.838;8.650;2022-12-18T22:22:27;56.83;;;20.60;;
43118;SDS011;28729;49.838;8.650;2022-12-18T22:26:30;56.42;;;22.92;;
43118;SDS011;28729;49.838;8.650;2022-12-18T22:30:40;60.40;;;23.40;;
43118;SDS011;28729;49.838;8.650;2022-12-18T22:34:42;60.72;;;24.30;;
43118;SDS011;28729;49.838;8.650;2022-12-18T22:38:45;58.55;;;23.17;;
43118;SDS011;28729;49.838;8.650;2022-12-18T22:42:48;67.03;;;23.25;;
43118;SDS011;28729;49.838;8.650;2022-12-18T22:46:53;61.58;;;22.67;;
43118;SDS011;28729;49.838;8.650;2022-12-18T22:51:08;63.50;;;23.67;;
43118;SDS011;28729;49.838;8.650;2022-12-18T22:55:16;49.47;;;21.27;;
43118;SDS011;28729;49.838;8.650;2022-12-18T22:59:18;54.65;;;21.25;;
43118;SDS011;28729;49.838;8.650;2022-12-18T23:03:21;43.20;;;18.27;;
43118;SDS011;28729;49.838;8.650;2022-12-18T23:07:22;49.42;;;18.17;;
43118;SDS011;28729;49.838;8.650;2022-12-18T23:11:24;44.83;;;18.60;;
43118;SDS011;28729;49.838;8.650;2022-12-18T23:15:26;47.00;;;17.90;;
43118;SDS011;28729;49.838;8.650;2022-12-18T23:19:29;47.17;;;17.83;;
43118;SDS011;28729;49.838;8.650;2022-12-18T23:23:31;41.35;;;18.17;;
43118;SDS011;28729;49.838;8.650;2022-12-18T23:27:36;45.88;;;17.73;;
43118;SDS011;28729;49.838;8.650;2022-12-18T23:31:38;42.90;;;17.45;;
43118;SDS011;28729;49.838;8.650;2022-12-18T23:35:40;53.80;;;18.47;;
43118;SDS011;28729;49.838;8.650;2022-12-18T23:39:41;51.92;;;18.58;;
43118;SDS011;28729;49.838;8.650;2022-12-18T23:43:43;47.00;;;17.33;;
43118;SDS011;28729;49.838;8.650;2022-12-18T23:47:47;60.10;;;17.42;;
43118;SDS011;28729;49.838;8.650;2022-12-18T23:51:52;47.42;;;19.73;;
43118;SDS011;28729;49.838;8.650;2022-12-18T23:55:55;53.40;;;19.75;;
43118;SDS011;28729;49.838;8.650;2022-12-18T23:59:58;47.17;;;19.27;;
